officemate.co.th alexa rank chart, officemate.co.th alexa rank daily changes

officemate.co.th alexa rank chart, officemate.co.th alexa rank daily changes

officemate.co.th
Actual rank:
29 636

RANK HISTORY

Date Rank Diff
2018/05/23 29 636 -54 775
2018/05/22 84 411 +37 259
2018/05/21 47 152 +12 084
2018/05/20 35 068 +6 237
2018/05/19 28 831 -9 030
2018/05/18 37 861 +1 395
2018/05/17 36 466 -2 272
2018/05/16 38 738 -61 506
2018/05/15 100 244 +45 550
2018/05/14 54 694 +16 676
2018/05/13 38 018 -13 830
2018/05/12 51 848 +12 167
2018/05/11 39 681 +7 515
2018/05/10 32 166 -5 938
2018/05/09 38 104 -35 556
2018/05/08 73 660 -24 934
2018/05/07 98 594 +58 179
2018/05/06 40 415 +2 967
2018/05/05 37 448 +4 366
2018/05/04 33 082 -21 681
2018/05/03 54 763 +3 046
2018/05/02 51 717 -50 662
2018/05/01 102 379 +38 329
2018/04/30 64 050 +19 000
2018/04/29 45 050 -7 865
2018/04/28 52 915 -31 284
2018/04/27 84 199 +37 255
2018/04/26 46 944 +1 440
2018/04/25 45 504 -80 574
2018/04/24 126 078 +41 879
2018/04/23 84 199 +35 580
2018/04/22 48 619 +5 676
2018/04/21 42 943 -3 118
2018/04/20 46 061 -15 163
2018/04/19 61 224 -51 580
2018/04/18 112 804 +17 528
2018/04/17 95 276 -77 012
2018/04/16 172 288 -39 656
2018/04/15 211 944 +156 616
2018/04/14 55 328 -19 014
2018/04/13 74 342 +20 471
2018/04/12 53 871 +5 543
2018/04/11 48 328 -21 594
2018/04/10 69 922 +11 978
2018/04/09 57 944 -1 427
2018/04/08 59 371 -3 895
2018/04/07 63 266 +22 852
2018/04/06 40 414 -6 339
2018/04/05 46 753 -16 952
2018/04/04 63 705 -26 278
2018/04/03 89 983 +28 787
2018/04/02 61 196 +22 512
2018/04/01 38 684 -13 276
2018/03/31 51 960 +10 285
2018/03/30 41 675 -12 474
2018/03/29 54 149 +10 349
2018/03/28 43 800 -46 836
2018/03/27 90 636 +22 222
2018/03/26 68 414 +30 650
2018/03/25 37 764 -3 919
2018/03/24 41 683

WIDGET FOR YOUR SITE

DOMAINS WITH THE NEAREST RANK

Domain Rank
q13fox.com 29 631
voltairenet.org 29 632
wgntv.com 29 633
utahrealestate.com 29 634
mhhe.com 29 635
officemate.co.th 29 636
vider.info 29 637
myegy.to 29 638
currentaffairs.org 29 639
mariinsky.ru 29 640
moneyunder30.com 29 641

DOMAINS WITH THE NEAREST RANK BY TLD .co.th

Domain Rank
ktb.co.th 24 491
dtac.co.th 24 855
skyscanner.co.th 26 393
homepro.co.th 28 118
tnews.co.th 28 277
officemate.co.th 29 636
scb.co.th 29 935
expedia.co.th 31 181
yellowpages.co.th 33 923
powerbuy.co.th 34 696
central.co.th 36 579